Time;durP1;ratioP1;P1;durP2;ratioP2;P2;SDS_P1;SDS_P2;PMS_P1;PMS_P2;Temp;Humidity;BMP_temperature;BMP_pressure;BME280_temperature;BME280_humidity;BME280_pressure;Samples;Min_cycle;Max_cycle;Signal;HPM_P1;HPM_P2
2020/12/30 00:00:00;;;;;;;7.70;5.17;;;4.50;99.90;;;;;;5053125;28;20194;-67
2020/12/30 00:02:29;;;;;;;7.43;5.17;;;4.50;99.90;;;;;;5052272;28;20253;-63
2020/12/30 00:04:55;;;;;;;7.17;5.00;;;4.50;99.90;;;;;;5052516;28;20190;-64
2020/12/30 00:07:22;;;;;;;10.17;5.00;;;4.60;99.90;;;;;;5047195;28;20741;-65
2020/12/30 00:09:48;;;;;;;7.17;4.93;;;4.60;99.90;;;;;;5043983;28;20474;-65
2020/12/30 00:12:17;;;;;;;9.57;5.13;;;4.60;99.90;;;;;;5035305;28;20437;-64
2020/12/30 00:14:43;;;;;;;6.13;4.57;;;4.50;99.90;;;;;;5046493;28;20411;-67
2020/12/30 00:17:09;;;;;;;6.87;4.60;;;4.60;99.90;;;;;;5048566;28;20843;-65
2020/12/30 00:19:34;;;;;;;8.50;4.97;;;4.50;99.90;;;;;;5046592;28;20509;-65
2020/12/30 00:22:02;;;;;;;6.37;4.63;;;4.50;99.90;;;;;;5044138;28;20179;-64
2020/12/30 00:24:28;;;;;;;6.77;4.43;;;4.40;99.90;;;;;;5050737;28;20498;-64
2020/12/30 00:26:53;;;;;;;6.50;4.13;;;4.50;99.90;;;;;;5043439;28;20420;-66
2020/12/30 00:29:19;;;;;;;5.83;4.47;;;4.50;99.90;;;;;;5052224;28;20191;-64
2020/12/30 00:31:45;;;;;;;8.20;4.60;;;4.50;99.90;;;;;;5051887;28;20175;-63
2020/12/30 00:34:10;;;;;;;7.10;4.13;;;4.50;99.90;;;;;;5051882;28;20194;-64
2020/12/30 00:36:39;;;;;;;4.60;3.67;;;4.50;99.90;;;;;;5033726;28;20206;-66
2020/12/30 00:39:06;;;;;;;7.33;4.23;;;4.40;99.90;;;;;;5051844;28;20183;-64
2020/12/30 00:41:32;;;;;;;7.93;4.10;;;4.40;99.90;;;;;;5051971;28;20834;-65
2020/12/30 00:43:58;;;;;;;7.37;4.23;;;4.50;99.90;;;;;;5051668;28;20409;-66
2020/12/30 00:46:24;;;;;;;5.97;4.20;;;4.50;99.90;;;;;;5051544;28;20791;-65
2020/12/30 00:48:49;;;;;;;7.13;3.80;;;4.50;99.90;;;;;;5052002;28;20449;-67
2020/12/30 00:51:15;;;;;;;6.33;4.47;;;4.60;99.90;;;;;;5051582;28;20225;-64
2020/12/30 00:53:41;;;;;;;5.03;4.10;;;4.60;99.90;;;;;;5051566;28;20205;-64
2020/12/30 00:56:10;;;;;;;6.57;3.70;;;4.60;99.90;;;;;;5051585;28;20199;-65
2020/12/30 00:58:39;;;;;;;7.30;3.53;;;4.60;99.90;;;;;;5051479;28;20175;-65
2020/12/30 01:01:09;;;;;;;4.50;3.50;;;4.60;99.90;;;;;;5051401;28;20479;-65
2020/12/30 01:03:35;;;;;;;5.97;4.27;;;4.60;99.90;;;;;;5050104;28;20890;-64
2020/12/30 01:06:02;;;;;;;6.70;3.60;;;4.70;99.90;;;;;;5047519;28;20437;-64
2020/12/30 01:08:28;;;;;;;5.13;4.00;;;4.60;99.90;;;;;;5043367;28;20480;-65
2020/12/30 01:10:54;;;;;;;5.63;3.80;;;4.60;99.90;;;;;;5051394;28;20413;-64
2020/12/30 01:13:20;;;;;;;5.57;4.03;;;4.70;99.90;;;;;;5051313;28;20193;-66
2020/12/30 01:15:46;;;;;;;4.63;3.40;;;4.60;99.90;;;;;;5051324;28;20505;-66
2020/12/30 01:18:12;;;;;;;3.57;3.23;;;4.70;99.90;;;;;;5033236;28;20266;-64
2020/12/30 01:20:38;;;;;;;5.60;3.33;;;4.70;99.90;;;;;;5035553;28;20589;-65
2020/12/30 01:23:03;;;;;;;4.03;3.50;;;4.70;99.90;;;;;;5051306;28;20183;-66
2020/12/30 01:25:29;;;;;;;3.90;3.27;;;4.70;99.90;;;;;;5050902;28;20191;-64
2020/12/30 01:27:55;;;;;;;6.60;3.30;;;4.70;99.90;;;;;;5050862;28;20645;-66
2020/12/30 01:30:21;;;;;;;4.43;3.00;;;4.70;99.90;;;;;;5050874;28;20625;-66
2020/12/30 01:32:46;;;;;;;4.30;3.20;;;4.70;99.90;;;;;;5045141;28;20238;-65
2020/12/30 01:35:12;;;;;;;6.23;4.20;;;4.70;99.90;;;;;;5038364;28;20447;-65
2020/12/30 01:37:38;;;;;;;4.60;3.30;;;4.70;99.90;;;;;;5050414;28;20559;-65
2020/12/30 01:40:04;;;;;;;4.60;3.47;;;4.70;99.90;;;;;;5050826;28;20274;-65
2020/12/30 01:42:46;;;;;;;4.23;3.43;;;4.70;99.90;;;;;;5050920;28;20689;-65
2020/12/30 01:45:13;;;;;;;5.27;3.70;;;4.70;99.90;;;;;;5049418;28;20829;-67
2020/12/30 01:47:39;;;;;;;5.03;4.00;;;4.70;99.90;;;;;;5043633;28;20503;-66
2020/12/30 01:50:06;;;;;;;5.27;3.43;;;4.80;99.90;;;;;;5041231;28;20465;-63
2020/12/30 01:52:33;;;;;;;5.63;3.87;;;4.80;99.90;;;;;;5033208;28;20469;-64
2020/12/30 01:54:59;;;;;;;4.57;3.57;;;4.80;99.90;;;;;;5051003;28;20429;-63
2020/12/30 01:57:25;;;;;;;5.07;3.93;;;4.70;99.90;;;;;;5049676;28;20440;-65
2020/12/30 01:59:50;;;;;;;6.60;5.00;;;4.70;99.90;;;;;;5050589;28;20939;-66
2020/12/30 02:02:17;;;;;;;6.80;4.13;;;4.70;99.90;;;;;;5050493;28;20406;-64
2020/12/30 02:04:53;;;;;;;5.87;4.23;;;4.70;99.90;;;;;;5050606;28;20167;-65
2020/12/30 02:07:21;;;;;;;7.57;5.00;;;4.70;99.90;;;;;;5050425;28;20899;-65
2020/12/30 02:09:47;;;;;;;8.87;4.63;;;4.70;99.90;;;;;;5050690;28;20453;-66
2020/12/30 02:12:14;;;;;;;7.73;4.97;;;4.60;99.90;;;;;;5050322;28;20918;-65
2020/12/30 02:14:40;;;;;;;6.97;5.27;;;4.60;99.90;;;;;;5050869;28;20198;-65
2020/12/30 02:17:12;;;;;;;7.03;5.40;;;3.70;99.90;;;;;;5048675;28;20409;-65
2020/12/30 02:19:38;;;;;;;7.87;5.37;;;4.50;99.90;;;;;;5045081;28;20432;-64
2020/12/30 02:22:05;;;;;;;6.90;5.10;;;4.50;99.90;;;;;;5054708;28;20863;-64
2020/12/30 02:24:32;;;;;;;6.83;4.63;;;4.50;99.90;;;;;;5054100;28;20205;-66
2020/12/30 02:26:59;;;;;;;7.90;4.90;;;4.40;99.90;;;;;;5054475;28;20429;-64
2020/12/30 02:29:25;;;;;;;9.07;4.47;;;4.60;99.90;;;;;;5054193;28;20453;-64
2020/12/30 02:31:51;;;;;;;6.87;4.57;;;4.60;99.90;;;;;;5054336;28;20418;-65
2020/12/30 02:34:17;;;;;;;4.70;4.03;;;4.50;99.90;;;;;;5054379;28;20171;-65
2020/12/30 02:36:42;;;;;;;5.57;4.07;;;4.50;99.90;;;;;;5052845;28;20163;-65
2020/12/30 02:39:08;;;;;;;6.60;4.53;;;4.50;99.90;;;;;;5054377;28;20421;-65
2020/12/30 02:41:34;;;;;;;5.33;4.00;;;4.60;99.90;;;;;;5053798;28;20179;-65
2020/12/30 02:44:01;;;;;;;6.70;4.63;;;4.60;99.90;;;;;;5052595;28;20190;-64
2020/12/30 02:46:27;;;;;;;7.10;4.37;;;4.60;99.90;;;;;;5053986;28;20182;-64
2020/12/30 02:48:53;;;;;;;6.07;4.17;;;4.60;99.90;;;;;;5053884;28;20774;-65
2020/12/30 02:51:18;;;;;;;5.77;4.50;;;4.70;99.90;;;;;;5053851;28;20672;-65
2020/12/30 02:53:44;;;;;;;5.83;4.00;;;4.70;99.90;;;;;;5053869;28;20179;-65
2020/12/30 02:56:10;;;;;;;6.67;4.07;;;4.60;99.90;;;;;;5054249;28;20621;-66
2020/12/30 02:58:35;;;;;;;4.67;4.13;;;4.60;99.90;;;;;;5053703;28;20544;-66
2020/12/30 03:01:01;;;;;;;5.90;4.53;;;4.60;99.90;;;;;;5053880;28;20182;-66
2020/12/30 03:03:26;;;;;;;8.23;5.00;;;4.60;99.90;;;;;;5053558;28;20187;-65
2020/12/30 03:05:54;;;;;;;6.73;5.37;;;4.60;99.90;;;;;;5029050;28;20175;-66
2020/12/30 03:08:20;;;;;;;7.03;5.03;;;4.60;99.90;;;;;;5053514;28;20229;-64
2020/12/30 03:10:46;;;;;;;6.77;4.57;;;4.60;99.90;;;;;;5053805;28;20405;-64
2020/12/30 03:13:11;;;;;;;5.40;4.00;;;4.60;99.90;;;;;;5053790;28;20616;-64
2020/12/30 03:15:37;;;;;;;6.17;4.63;;;4.60;99.90;;;;;;5053191;28;20171;-64
2020/12/30 03:18:02;;;;;;;5.40;4.47;;;4.60;99.90;;;;;;5053556;28;20187;-64
2020/12/30 03:20:28;;;;;;;8.73;5.30;;;4.50;99.90;;;;;;5053280;28;20179;-65
2020/12/30 03:22:53;;;;;;;5.83;4.77;;;4.60;99.90;;;;;;5047567;28;20514;-63
2020/12/30 03:25:19;;;;;;;6.23;4.83;;;4.50;99.90;;;;;;5044827;28;20634;-64
2020/12/30 03:27:45;;;;;;;6.20;4.60;;;4.60;99.90;;;;;;5037047;28;20199;-63
2020/12/30 03:30:10;;;;;;;5.80;4.50;;;4.60;99.90;;;;;;5043133;28;20250;-67
2020/12/30 03:32:36;;;;;;;7.83;4.80;;;4.60;99.90;;;;;;5035056;28;20183;-66
2020/12/30 03:35:02;;;;;;;7.33;4.87;;;4.60;99.90;;;;;;5044793;28;20175;-65
2020/12/30 03:37:28;;;;;;;6.20;4.87;;;4.60;99.90;;;;;;5050409;28;20644;-66
2020/12/30 03:39:54;;;;;;;6.37;5.03;;;4.50;99.90;;;;;;5052880;28;20170;-65
2020/12/30 03:42:20;;;;;;;6.60;4.77;;;4.50;99.90;;;;;;5042549;28;20411;-65
2020/12/30 03:44:45;;;;;;;6.10;4.87;;;4.50;99.90;;;;;;5048176;28;20262;-64
2020/12/30 03:47:11;;;;;;;7.47;4.93;;;4.60;99.90;;;;;;5045611;28;20626;-64
2020/12/30 03:49:36;;;;;;;6.33;5.17;;;4.50;99.90;;;;;;5043941;28;20233;-66
2020/12/30 03:52:02;;;;;;;6.77;5.30;;;4.50;99.90;;;;;;5045962;28;20215;-64
2020/12/30 03:54:29;;;;;;;7.93;5.20;;;4.50;99.90;;;;;;5052798;28;20202;-65
2020/12/30 03:56:55;;;;;;;9.93;5.30;;;4.50;99.90;;;;;;5052714;28;20731;-64
2020/12/30 03:59:21;;;;;;;5.67;4.77;;;4.50;99.90;;;;;;5052338;28;20513;-64
2020/12/30 04:01:53;;;;;;;8.53;5.77;;;4.50;99.90;;;;;;5050137;28;20191;-65
2020/12/30 04:04:18;;;;;;;6.93;4.87;;;4.40;99.90;;;;;;5039510;28;20191;-66
2020/12/30 04:06:44;;;;;;;8.60;5.10;;;4.40;99.90;;;;;;5052790;28;20474;-65
2020/12/30 04:09:10;;;;;;;6.23;4.97;;;4.40;99.90;;;;;;5052674;28;20199;-66
2020/12/30 04:11:36;;;;;;;5.83;4.70;;;4.40;99.90;;;;;;5052240;28;20190;-64
2020/12/30 04:14:01;;;;;;;8.57;4.73;;;4.40;99.90;;;;;;5052319;28;20171;-65
2020/12/30 04:16:27;;;;;;;8.70;5.40;;;4.40;99.90;;;;;;5052073;28;20218;-64
2020/12/30 04:18:53;;;;;;;8.10;5.43;;;4.40;99.90;;;;;;5052633;28;20512;-66
2020/12/30 04:21:23;;;;;;;8.67;5.47;;;4.40;99.90;;;;;;5052470;28;20171;-66
2020/12/30 04:23:49;;;;;;;9.43;5.77;;;4.40;99.90;;;;;;5052335;28;20625;-66
2020/12/30 04:26:16;;;;;;;5.70;4.77;;;4.30;99.90;;;;;;5052225;28;20807;-65
2020/12/30 04:28:42;;;;;;;6.07;4.73;;;4.30;99.90;;;;;;5040173;28;20462;-63
2020/12/30 04:31:15;;;;;;;5.87;4.87;;;4.30;99.90;;;;;;5047361;28;20521;-63
2020/12/30 04:33:41;;;;;;;6.67;4.73;;;4.30;99.90;;;;;;5040674;28;20665;-64
2020/12/30 04:36:07;;;;;;;5.63;4.07;;;4.30;99.90;;;;;;5038274;28;20418;-64
2020/12/30 04:38:34;;;;;;;6.23;4.97;;;4.30;99.90;;;;;;5052336;28;20217;-65
2020/12/30 04:41:20;;;;;;;7.23;3.70;;;4.40;99.90;;;;;;5051890;28;20448;-63
2020/12/30 04:43:49;;;;;;;4.17;2.90;;;4.40;99.90;;;;;;5037530;28;20422;-65
2020/12/30 04:46:16;;;;;;;8.70;3.80;;;4.50;99.90;;;;;;5050975;28;20425;-63
2020/12/30 04:48:41;;;;;;;5.27;3.27;;;4.40;99.90;;;;;;5050093;28;20524;-64
2020/12/30 04:51:10;;;;;;;3.40;3.00;;;4.40;99.90;;;;;;5047305;28;20438;-65
2020/12/30 04:53:36;;;;;;;5.73;3.70;;;4.40;99.90;;;;;;5043083;28;20168;-64
2020/12/30 04:56:02;;;;;;;7.50;3.53;;;4.40;99.90;;;;;;5044827;28;20413;-63
2020/12/30 04:58:30;;;;;;;6.20;4.40;;;4.40;99.90;;;;;;5051667;28;20417;-64
2020/12/30 05:00:58;;;;;;;8.03;4.70;;;4.30;99.90;;;;;;5043070;28;20761;-65
2020/12/30 05:03:28;;;;;;;6.97;4.93;;;4.30;99.90;;;;;;5048634;28;20833;-63
2020/12/30 05:05:55;;;;;;;6.37;5.43;;;4.20;99.90;;;;;;5048482;28;20453;-63
2020/12/30 05:08:21;;;;;;;8.67;5.80;;;4.10;99.90;;;;;;5045860;28;20462;-66
2020/12/30 05:10:49;;;;;;;9.53;5.23;;;4.10;99.90;;;;;;5045932;28;20425;-65
2020/12/30 05:13:15;;;;;;;6.20;4.53;;;4.10;99.90;;;;;;5042949;28;20179;-64
2020/12/30 05:15:40;;;;;;;6.50;4.60;;;4.00;99.90;;;;;;5032057;28;20425;-63
2020/12/30 05:18:08;;;;;;;5.63;4.73;;;4.00;99.90;;;;;;5044273;28;20179;-64
2020/12/30 05:20:37;;;;;;;6.83;4.57;;;4.00;99.90;;;;;;5037140;28;20182;-63
2020/12/30 05:23:09;;;;;;;6.47;4.40;;;4.00;99.90;;;;;;5038627;28;20428;-64
2020/12/30 05:25:39;;;;;;;5.90;4.43;;;4.00;99.90;;;;;;5033978;28;20504;-65
2020/12/30 05:28:06;;;;;;;5.93;4.70;;;4.00;99.90;;;;;;5045599;28;20493;-66
2020/12/30 05:30:33;;;;;;;6.77;4.43;;;3.90;99.90;;;;;;5024617;28;20441;-64
2020/12/30 05:32:59;;;;;;;6.83;4.23;;;3.90;99.90;;;;;;5037797;28;20422;-63
2020/12/30 05:35:28;;;;;;;6.17;4.37;;;3.90;99.90;;;;;;5039393;28;20441;-64
2020/12/30 05:37:55;;;;;;;5.90;4.23;;;3.80;99.90;;;;;;5033230;28;20418;-65
2020/12/30 05:40:29;;;;;;;6.10;4.50;;;3.80;99.90;;;;;;5045209;28;20414;-63
2020/12/30 05:43:10;;;;;;;6.57;4.33;;;3.80;99.90;;;;;;5035409;28;20421;-65
2020/12/30 05:45:50;;;;;;;9.63;4.10;;;3.90;99.90;;;;;;5046145;28;20425;-64
2020/12/30 05:48:17;;;;;;;4.60;4.00;;;3.90;99.90;;;;;;5042090;28;20855;-64
2020/12/30 05:50:52;;;;;;;6.27;4.10;;;3.90;99.90;;;;;;5049277;28;20782;-64
2020/12/30 05:53:18;;;;;;;6.70;4.33;;;3.80;99.90;;;;;;5050244;28;20452;-63
2020/12/30 05:55:47;;;;;;;5.50;4.40;;;3.90;99.90;;;;;;5050090;28;20418;-65
2020/12/30 05:58:14;;;;;;;4.93;4.40;;;3.90;99.90;;;;;;5050717;28;20816;-63
2020/12/30 06:00:40;;;;;;;9.33;4.70;;;4.00;99.90;;;;;;5030000;28;20506;-63
2020/12/30 06:03:06;;;;;;;7.97;4.40;;;4.00;99.90;;;;;;5050445;28;20469;-64
2020/12/30 06:05:32;;;;;;;7.07;4.77;;;4.00;99.90;;;;;;5045314;28;20899;-64
2020/12/30 06:07:58;;;;;;;6.93;4.13;;;4.00;99.90;;;;;;5050364;28;20972;-64
2020/12/30 06:10:25;;;;;;;5.03;4.40;;;4.00;99.90;;;;;;5050432;28;20414;-64
2020/12/30 06:12:54;;;;;;;6.40;4.33;;;4.00;99.90;;;;;;5050787;28;20757;-65
2020/12/30 06:15:25;;;;;;;7.10;4.77;;;4.10;99.90;;;;;;5050608;28;20504;-65
2020/12/30 06:18:10;;;;;;;6.80;3.83;;;4.10;99.90;;;;;;5050375;28;20922;-65
2020/12/30 06:20:38;;;;;;;5.63;3.90;;;4.10;99.90;;;;;;5045311;28;20452;-64
2020/12/30 06:23:15;;;;;;;9.57;4.47;;;4.10;99.90;;;;;;5030404;28;20431;-63
2020/12/30 06:25:45;;;;;;;4.97;3.90;;;4.20;99.90;;;;;;5034535;28;20433;-63
2020/12/30 06:28:12;;;;;;;4.83;3.60;;;4.10;99.90;;;;;;5030826;28;20449;-65
2020/12/30 06:30:39;;;;;;;5.67;4.30;;;4.10;99.90;;;;;;5046064;28;20416;-66
2020/12/30 06:33:07;;;;;;;6.03;3.97;;;4.10;99.90;;;;;;5050370;28;20918;-66
2020/12/30 06:35:34;;;;;;;9.47;4.13;;;4.10;99.90;;;;;;5050160;28;20414;-65
2020/12/30 06:38:16;;;;;;;7.30;3.57;;;4.20;99.90;;;;;;5050217;28;20418;-64
2020/12/30 06:40:51;;;;;;;5.77;3.90;;;4.20;99.90;;;;;;5049252;28;20516;-64
2020/12/30 06:43:40;;;;;;;7.33;4.23;;;4.30;99.90;;;;;;5049695;28;20917;-64
2020/12/30 06:46:07;;;;;;;6.10;3.77;;;4.30;99.90;;;;;;5049834;28;20517;-63
2020/12/30 06:48:54;;;;;;;7.33;3.67;;;4.20;99.90;;;;;;5049911;28;20450;-66
2020/12/30 06:51:20;;;;;;;6.70;4.03;;;4.20;99.90;;;;;;5049500;28;20520;-66
2020/12/30 06:53:53;;;;;;;5.97;4.57;;;4.20;99.90;;;;;;5042914;28;20452;-66
2020/12/30 06:56:43;;;;;;;6.37;3.43;;;4.20;99.90;;;;;;5049980;28;20175;-65
2020/12/30 06:59:09;;;;;;;6.30;4.40;;;4.20;99.90;;;;;;5029217;28;20971;-64
2020/12/30 07:02:00;;;;;;;5.87;3.87;;;4.20;99.90;;;;;;5033522;28;20426;-66
2020/12/30 07:04:27;;;;;;;6.47;4.50;;;4.20;99.90;;;;;;5049960;28;20978;-63
2020/12/30 07:06:53;;;;;;;7.27;4.03;;;4.10;99.90;;;;;;5049988;28;20809;-66
2020/12/30 07:09:30;;;;;;;6.07;3.70;;;4.10;99.90;;;;;;5053352;28;20445;-65
2020/12/30 07:11:56;;;;;;;5.03;4.53;;;4.20;99.90;;;;;;5053472;28;20401;-66
2020/12/30 07:14:24;;;;;;;6.67;4.73;;;4.20;99.90;;;;;;5053352;28;20441;-65
2020/12/30 07:16:54;;;;;;;5.90;4.40;;;4.20;99.90;;;;;;5052990;28;20424;-68
2020/12/30 07:19:21;;;;;;;4.57;4.13;;;4.10;99.90;;;;;;5035272;28;20457;-66
2020/12/30 07:22:02;;;;;;;6.37;4.43;;;4.10;99.90;;;;;;5053319;28;20624;-67
2020/12/30 07:24:27;;;;;;;5.63;4.30;;;4.10;99.90;;;;;;5053161;28;20981;-64
2020/12/30 07:26:59;;;;;;;6.87;4.53;;;4.10;99.90;;;;;;5046411;28;20678;-67
2020/12/30 07:29:25;;;;;;;6.50;4.23;;;4.10;99.90;;;;;;5052975;28;20669;-68
2020/12/30 07:31:54;;;;;;;10.30;4.67;;;4.10;99.90;;;;;;5052845;28;20420;-67
2020/12/30 07:34:25;;;;;;;5.20;4.27;;;4.10;99.90;;;;;;5048854;28;20410;-66
2020/12/30 07:36:52;;;;;;;7.27;4.80;;;4.10;99.90;;;;;;5043420;28;20463;-67
2020/12/30 07:39:30;;;;;;;6.80;4.90;;;4.10;99.90;;;;;;5052859;28;20484;-65
2020/12/30 07:41:56;;;;;;;7.87;4.80;;;4.10;99.90;;;;;;5053073;28;20414;-68
2020/12/30 07:44:22;;;;;;;5.87;3.83;;;4.10;99.90;;;;;;5052648;28;20421;-68
2020/12/30 07:46:48;;;;;;;8.47;5.30;;;4.10;99.90;;;;;;5052733;28;20420;-67
2020/12/30 07:49:21;;;;;;;6.70;4.70;;;4.10;99.90;;;;;;5052472;28;20835;-67
2020/12/30 07:51:55;;;;;;;6.33;4.50;;;4.20;99.90;;;;;;5052879;28;20219;-66
2020/12/30 07:54:22;;;;;;;10.07;5.30;;;4.20;99.90;;;;;;5052576;28;20449;-65
2020/12/30 07:56:48;;;;;;;6.93;4.93;;;4.20;99.90;;;;;;5052304;28;20496;-66
2020/12/30 07:59:24;;;;;;;7.67;5.47;;;4.10;99.90;;;;;;5052660;28;20429;-64
2020/12/30 08:02:11;;;;;;;7.13;5.40;;;4.10;99.90;;;;;;5052508;28;20471;-67
2020/12/30 08:04:38;;;;;;;8.80;5.20;;;4.10;99.90;;;;;;5038918;28;20416;-67
2020/12/30 08:07:08;;;;;;;9.33;5.47;;;4.10;99.90;;;;;;5049661;28;20410;-65
2020/12/30 08:09:41;;;;;;;6.27;5.13;;;4.20;99.90;;;;;;5044885;28;20457;-66
2020/12/30 08:12:09;;;;;;;7.33;6.00;;;4.20;99.90;;;;;;5049190;28;20460;-66
2020/12/30 08:14:36;;;;;;;5.60;4.77;;;4.30;99.90;;;;;;5032499;28;20415;-67
2020/12/30 08:17:07;;;;;;;5.43;4.03;;;4.30;99.90;;;;;;5051011;28;20483;-65
2020/12/30 08:19:47;;;;;;;7.63;4.60;;;4.30;99.90;;;;;;5050578;28;20520;-66
2020/12/30 08:22:17;;;;;;;4.47;3.73;;;4.30;99.90;;;;;;5051816;28;20417;-67
2020/12/30 08:24:45;;;;;;;5.57;4.10;;;4.40;99.90;;;;;;5051998;28;20946;-66
2020/12/30 08:27:13;;;;;;;9.60;4.60;;;4.40;99.90;;;;;;5051815;28;20500;-66
2020/12/30 08:29:42;;;;;;;8.00;5.17;;;4.40;99.90;;;;;;5052129;28;20504;-68
2020/12/30 08:32:26;;;;;;;5.37;4.27;;;4.40;99.90;;;;;;5051822;28;20859;-68
2020/12/30 08:35:03;;;;;;;5.90;4.20;;;4.40;99.90;;;;;;5051251;28;20467;-68
2020/12/30 08:37:32;;;;;;;8.80;4.30;;;4.40;99.90;;;;;;5050781;28;20414;-68
2020/12/30 08:40:24;;;;;;;7.53;4.20;;;4.40;99.90;;;;;;5052030;28;20436;-65
2020/12/30 08:42:53;;;;;;;6.97;3.90;;;4.40;99.90;;;;;;5044613;28;20475;-66
2020/12/30 08:45:32;;;;;;;5.97;3.93;;;4.40;99.90;;;;;;5051383;28;20425;-66
2020/12/30 08:48:19;;;;;;;9.17;4.67;;;4.40;99.90;;;;;;5046387;28;20528;-69
2020/12/30 08:50:46;;;;;;;8.20;3.77;;;4.50;99.90;;;;;;5042132;28;20475;-68
2020/12/30 08:53:12;;;;;;;6.93;2.90;;;4.50;99.90;;;;;;5033767;28;20457;-68
2020/12/30 08:55:38;;;;;;;9.87;4.63;;;4.50;99.90;;;;;;5033373;28;20459;-68
2020/12/30 08:58:04;;;;;;;7.53;3.83;;;4.40;99.90;;;;;;5051222;28;20210;-68
2020/12/30 09:00:35;;;;;;;5.27;3.67;;;4.40;99.90;;;;;;5051509;28;20468;-67
2020/12/30 09:03:11;;;;;;;6.37;4.07;;;4.40;99.90;;;;;;5051433;28;20179;-64
2020/12/30 09:05:37;;;;;;;7.50;4.03;;;4.40;99.90;;;;;;5051301;28;20910;-67
2020/12/30 09:08:19;;;;;;;6.77;2.57;;;4.50;99.90;;;;;;5050986;28;20479;-67
2020/12/30 09:10:46;;;;;;;7.90;4.77;;;4.50;99.90;;;;;;5050872;28;20211;-66
2020/12/30 09:13:16;;;;;;;8.27;3.83;;;4.50;99.90;;;;;;5051248;28;20405;-65
2020/12/30 09:15:43;;;;;;;8.00;4.30;;;4.50;99.90;;;;;;5051143;28;20449;-66
2020/12/30 09:18:13;;;;;;;7.17;4.30;;;4.50;99.90;;;;;;5051455;28;21400;-65
2020/12/30 09:20:40;;;;;;;5.47;4.23;;;4.50;99.90;;;;;;5033352;28;20766;-68
2020/12/30 09:23:06;;;;;;;6.60;4.73;;;4.60;99.90;;;;;;5031137;28;20418;-68
2020/12/30 09:25:33;;;;;;;6.67;4.77;;;4.60;99.90;;;;;;5036681;28;20418;-69
2020/12/30 09:27:59;;;;;;;8.77;4.53;;;4.60;99.90;;;;;;5050961;28;20237;-67
2020/12/30 09:30:27;;;;;;;7.07;4.73;;;4.60;99.90;;;;;;5045228;28;20414;-65
2020/12/30 09:32:55;;;;;;;3.13;2.87;;;4.50;99.90;;;;;;5031101;28;20461;-65
2020/12/30 09:35:29;;;;;;;4.77;3.17;;;4.50;99.90;;;;;;5039388;28;20417;-67
2020/12/30 09:37:57;;;;;;;7.37;4.47;;;4.40;99.90;;;;;;5049744;28;20961;-65
2020/12/30 09:40:24;;;;;;;8.53;4.60;;;4.40;99.90;;;;;;5037147;28;20414;-67
2020/12/30 09:42:51;;;;;;;8.43;4.60;;;4.40;99.90;;;;;;5031008;28;20419;-67
2020/12/30 09:45:19;;;;;;;8.50;5.03;;;4.40;99.90;;;;;;5030935;28;20422;-65
2020/12/30 09:47:46;;;;;;;7.67;4.60;;;4.30;99.90;;;;;;5038713;28;20484;-68
2020/12/30 09:50:13;;;;;;;6.00;4.70;;;4.40;99.90;;;;;;5042062;28;20473;-64
2020/12/30 09:52:53;;;;;;;5.87;4.50;;;4.30;99.90;;;;;;5051014;28;20913;-66
2020/12/30 09:55:18;;;;;;;7.17;4.27;;;4.30;99.90;;;;;;5050837;28;20413;-65
2020/12/30 09:57:44;;;;;;;6.00;3.87;;;4.30;99.90;;;;;;5050925;28;20406;-68
2020/12/30 10:00:10;;;;;;;5.00;3.10;;;4.30;99.90;;;;;;5050543;28;20217;-66
2020/12/30 10:02:35;;;;;;;5.23;3.23;;;4.40;99.90;;;;;;5050643;28;20233;-67
2020/12/30 10:05:01;;;;;;;3.67;2.53;;;4.50;99.90;;;;;;5050992;28;20179;-65
2020/12/30 10:07:27;;;;;;;4.70;2.30;;;4.50;99.90;;;;;;5050656;28;20604;-65
2020/12/30 10:09:53;;;;;;;3.97;2.27;;;4.60;99.90;;;;;;5043548;28;20254;-65
2020/12/30 10:12:22;;;;;;;2.77;2.00;;;4.60;99.90;;;;;;5030492;28;20254;-65
2020/12/30 10:14:49;;;;;;;5.77;2.80;;;4.60;99.90;;;;;;5043763;28;20422;-65
2020/12/30 10:17:14;;;;;;;5.67;2.97;;;4.60;99.90;;;;;;5050346;28;20413;-66
2020/12/30 10:19:40;;;;;;;7.50;3.37;;;4.70;99.90;;;;;;5038953;28;20445;-65
2020/12/30 10:22:10;;;;;;;6.33;4.00;;;4.70;99.90;;;;;;5030590;28;20167;-67
2020/12/30 10:24:36;;;;;;;7.20;4.70;;;4.70;99.90;;;;;;5039548;28;20181;-67
2020/12/30 10:27:03;;;;;;;4.97;4.50;;;4.70;99.90;;;;;;5041729;28;20426;-67
2020/12/30 10:29:30;;;;;;;7.27;4.67;;;4.70;99.90;;;;;;5045701;28;20564;-65
2020/12/30 10:31:57;;;;;;;6.70;4.87;;;4.80;99.90;;;;;;5036096;28;20893;-67
2020/12/30 10:34:23;;;;;;;6.00;4.67;;;4.70;99.90;;;;;;5041659;28;20420;-66
2020/12/30 10:36:48;;;;;;;7.77;4.87;;;4.70;99.90;;;;;;5044378;28;20932;-67
2020/12/30 10:39:14;;;;;;;7.23;4.47;;;4.80;99.90;;;;;;5045582;28;20252;-69
2020/12/30 10:41:39;;;;;;;8.43;5.73;;;4.90;99.90;;;;;;5051356;28;20182;-65
2020/12/30 10:44:05;;;;;;;5.20;4.03;;;4.80;99.90;;;;;;5054029;28;20183;-65
2020/12/30 10:46:30;;;;;;;7.70;4.77;;;4.90;99.90;;;;;;5053808;28;20253;-67
2020/12/30 10:48:56;;;;;;;5.77;4.53;;;4.90;99.90;;;;;;5053657;28;20191;-65
2020/12/30 10:51:22;;;;;;;5.80;4.80;;;5.00;99.90;;;;;;5054092;28;20765;-65
2020/12/30 10:53:53;;;;;;;7.77;4.70;;;4.90;99.90;;;;;;5053834;28;20221;-66
2020/12/30 10:56:19;;;;;;;6.93;4.33;;;4.90;99.90;;;;;;5053262;28;20175;-66
2020/12/30 10:58:44;;;;;;;6.83;4.10;;;4.90;99.90;;;;;;5047346;28;20783;-66
2020/12/30 11:01:14;;;;;;;6.83;4.70;;;4.90;99.90;;;;;;5046015;28;20217;-68
2020/12/30 11:03:40;;;;;;;5.97;4.20;;;5.00;99.90;;;;;;5053542;28;20182;-67
2020/12/30 11:06:07;;;;;;;5.73;4.50;;;5.00;99.90;;;;;;5053188;28;20844;-67
2020/12/30 11:08:34;;;;;;;8.80;4.63;;;5.10;99.90;;;;;;5035899;28;20565;-67
2020/12/30 11:11:01;;;;;;;5.80;4.03;;;5.10;99.90;;;;;;5042056;28;20421;-64
2020/12/30 11:13:27;;;;;;;6.80;4.20;;;5.10;99.90;;;;;;5043684;28;20407;-68
2020/12/30 11:15:53;;;;;;;7.23;3.80;;;5.20;99.90;;;;;;5052970;28;20447;-65
2020/12/30 11:18:19;;;;;;;6.97;4.30;;;5.20;99.90;;;;;;5033390;28;20175;-66
2020/12/30 11:20:45;;;;;;;6.00;4.10;;;5.30;99.90;;;;;;5052737;28;20474;-67
2020/12/30 11:23:11;;;;;;;5.87;3.63;;;5.30;99.90;;;;;;5052933;28;20414;-68
2020/12/30 11:25:37;;;;;;;6.33;4.50;;;5.20;99.90;;;;;;5035634;28;20184;-65
2020/12/30 11:28:03;;;;;;;8.20;4.50;;;5.30;99.90;;;;;;5048502;28;20476;-68
2020/12/30 11:30:30;;;;;;;5.53;3.73;;;5.30;99.90;;;;;;5047503;28;20278;-67
2020/12/30 11:32:56;;;;;;;4.63;3.37;;;5.30;99.90;;;;;;5037560;28;20506;-68
2020/12/30 11:35:22;;;;;;;9.30;4.43;;;5.30;99.90;;;;;;5035805;28;20422;-66
2020/12/30 11:37:48;;;;;;;5.13;3.97;;;5.40;99.90;;;;;;5048012;28;20419;-68
2020/12/30 11:40:13;;;;;;;6.00;4.10;;;5.40;99.90;;;;;;5044950;28;20209;-67
2020/12/30 11:42:40;;;;;;;6.50;4.83;;;5.60;99.90;;;;;;5053264;28;20529;-69
2020/12/30 11:45:06;;;;;;;8.07;4.37;;;5.70;99.90;;;;;;5030636;28;20194;-65
2020/12/30 11:47:32;;;;;;;5.17;3.30;;;5.80;99.90;;;;;;5030983;28;20426;-67
2020/12/30 11:49:58;;;;;;;8.93;4.33;;;5.90;99.90;;;;;;5041031;28;20468;-67
2020/12/30 11:52:23;;;;;;;7.37;4.60;;;6.00;99.90;;;;;;5032622;28;20220;-67
2020/12/30 11:54:49;;;;;;;7.23;4.13;;;5.90;99.90;;;;;;5050683;28;20175;-69
2020/12/30 11:57:15;;;;;;;6.63;4.27;;;5.90;99.90;;;;;;5046895;28;20511;-68
2020/12/30 11:59:40;;;;;;;8.57;5.07;;;6.00;99.90;;;;;;5052919;28;20175;-65
2020/12/30 12:02:06;;;;;;;5.67;4.37;;;6.10;99.90;;;;;;5052341;28;20192;-66
2020/12/30 12:04:32;;;;;;;8.17;4.63;;;6.10;99.90;;;;;;5052526;28;20190;-66
2020/12/30 12:07:01;;;;;;;8.23;4.00;;;6.10;99.90;;;;;;5048615;28;20187;-68
2020/12/30 12:09:28;;;;;;;7.00;3.60;;;6.10;99.90;;;;;;5039511;28;20457;-68
2020/12/30 12:11:54;;;;;;;3.77;2.50;;;6.00;99.90;;;;;;5043502;28;20553;-67
2020/12/30 12:14:20;;;;;;;4.57;2.93;;;6.00;99.90;;;;;;5035411;28;20417;-67
2020/12/30 12:16:53;;;;;;;4.80;2.20;;;6.00;99.90;;;;;;5050272;28;20433;-66
2020/12/30 12:19:19;;;;;;;5.83;3.50;;;5.90;99.90;;;;;;5051696;28;20421;-67
2020/12/30 12:21:44;;;;;;;6.90;3.43;;;5.90;99.90;;;;;;5035397;28;20825;-63
2020/12/30 12:24:12;;;;;;;4.87;3.70;;;5.90;99.90;;;;;;5046556;28;20171;-66
2020/12/30 12:26:37;;;;;;;5.67;3.37;;;5.90;99.90;;;;;;5052054;28;20248;-65
2020/12/30 12:29:36;;;;;;;5.03;3.23;;;5.90;99.90;;;;;;5051687;28;20461;-65
2020/12/30 12:32:13;;;;;;;5.43;3.10;;;6.00;99.90;;;;;;5046107;28;20684;-66
2020/12/30 12:34:40;;;;;;;3.57;2.57;;;6.00;99.90;;;;;;5045181;28;20427;-68
2020/12/30 12:37:08;;;;;;;5.00;2.70;;;6.00;99.90;;;;;;5031792;28;20780;-67
2020/12/30 12:39:35;;;;;;;4.47;2.50;;;6.00;99.90;;;;;;5031842;28;20881;-68
2020/12/30 12:42:00;;;;;;;3.73;2.00;;;6.00;99.90;;;;;;5051710;28;20468;-65
2020/12/30 12:44:26;;;;;;;5.10;3.07;;;6.00;99.90;;;;;;5051482;28;20425;-65
2020/12/30 12:46:52;;;;;;;3.87;2.33;;;6.00;99.90;;;;;;5051359;28;20214;-69
2020/12/30 12:49:18;;;;;;;4.57;2.47;;;6.10;99.90;;;;;;5044378;28;20237;-68
2020/12/30 12:51:48;;;;;;;3.67;2.23;;;6.10;99.90;;;;;;5051759;28;20187;-66
2020/12/30 12:54:14;;;;;;;2.93;1.60;;;6.20;99.90;;;;;;5031851;28;20426;-65
2020/12/30 12:56:40;;;;;;;2.00;1.60;;;6.20;99.90;;;;;;5031070;28;20721;-66
2020/12/30 12:59:05;;;;;;;2.83;1.37;;;6.20;99.90;;;;;;5016792;28;21251;-66
2020/12/30 13:01:31;;;;;;;2.00;1.70;;;6.20;99.90;;;;;;4993620;28;20184;-67